METAR Data
IDs: Format: Raw Decoded Include TAF

Data at: 1056 UTC 15 Dec 2018

PAMY 150956Z AUTO 35016KT 6SM -SN SCT035 OVC050 M07/M11 A2953 RMK AO2 SLP003 P0000 T10721111 FZRANO $
PAMY 150933Z AUTO 34015KT 9SM -SN FEW027 BKN035 OVC055 M08/M11 A2953 RMK AO2 P0000 FZRANO $
PAMY 150914Z AUTO 33012KT 5SM -SN BR SCT007 BKN028 OVC049 M08/M10 A2953 RMK AO2 P0000 FZRANO $
PAMY 150904Z AUTO 35010KT 9SM -SN FEW004 BKN008 OVC049 M08/M10 A2953 RMK AO2 CIG 007V012 P0000 FZRANO $
PAMY 150856Z AUTO 02008KT 6SM -SN BR SCT008 BKN015 OVC021 M09/M10 A2953 RMK AO2 SLP001 P0000 60000 T10891100 410721111 50004 FZRANO $
PAMY 150852Z AUTO 01009KT 5SM -SN BR FEW008 BKN021 OVC029 M09/M11 A2953 RMK AO2 P0000 410721111 FZRANO $
PAMY 150844Z AUTO 08003KT 2SM -SN BR FEW008 BKN021 OVC043 M09/M11 A2953 RMK AO2 VIS 3/4V5 P0000 FZRANO $
PAMY 150833Z AUTO 23005KT 1 3/4SM -SN BR SCT015 BKN028 OVC043 M11/M12 A2953 RMK AO2 VIS 1V5 P0000 FZRANO $
PAMY 150752Z AUTO 21005KT 2SM -SN BR OVC022 M11/M12 A2951 RMK AO2 P0000 FZRANO $
PAMY 150742Z AUTO 22006KT 1SM -SN BR BKN022 BKN029 OVC035 M11/M12 A2951 RMK AO2 P0000 FZRANO $
PAMY 150656Z AUTO 18005KT 7SM -SN FEW015 OVC050 M11/M12 A2950 RMK AO2 SLP990 P0000 T11061122 FZRANO $
PAMY 150648Z AUTO 17007KT 5SM -SN BR SCT013 SCT019 OVC050 M11/M13 A2949 RMK AO2 P0000 FZRANO $
PAMY 150628Z AUTO 16005KT 6SM -SN BR BKN013 OVC021 M11/M12 A2949 RMK AO2 P0000 FZRANO $
PAMY 150620Z AUTO 16004KT 2SM -SN BR BKN013 OVC018 M11/M13 A2949 RMK AO2 P0000 FZRANO $
PAMY 150611Z AUTO 00000KT 1SM -SN BR BKN013 BKN018 OVC024 M11/M13 A2949 RMK AO2 P0000 FZRANO $
PAMY 150600Z AUTO 17004KT 1 3/4SM -SN BR FEW011 BKN018 OVC031 M11/M13 A2948 RMK AO2 P0000 FZRANO $
PAMY 150556Z AUTO 18004KT 4SM -SN BR FEW011 BKN018 OVC031 M11/M13 A2948 RMK AO2 SLP986 P0000 60000 T11061128 11083 21106 53012 FZRANO $
PAMY 150534Z AUTO 17006KT 6SM -SN SCT014 BKN021 OVC033 M10/M13 A2947 RMK AO2 P0000 FZRANO $
PAMY 150504Z AUTO 04005KT 7SM -SN FEW009 SCT018 OVC049 M09/M12 A2947 RMK AO2 P0000 FZRANO $
PAMY 150456Z AUTO 04005KT 7SM -SN FEW009 BKN028 OVC049 M09/M12 A2947 RMK AO2 SNB14 SLP981 P0000 T10891122 FZRANO $
PAMY 150442Z AUTO 04008KT 3SM -SN SCT009 BKN020 OVC027 M08/M12 A2947 RMK AO2 SNB14 P0000 FZRANO $
PAMY 150430Z AUTO 03004KT 1 3/4SM -SN BKN027 OVC033 M08/M12 A2946 RMK AO2 VIS 1V5 SNB14 P0000 FZRANO $
PAMY 150423Z AUTO 03009KT 5SM -SN BKN027 OVC033 M08/M12 A2946 RMK AO2 SNB14 P0000 FZRANO $
PAMY 150356Z AUTO 03008KT 9SM BKN033 OVC041 M08/M12 A2945 RMK AO2 SNB41E53 SLP975 P0000 T10831122 FZRANO $
PAMY 150256Z AUTO 01008KT 10SM BKN049 M09/M13 A2945 RMK AO2 SLP974 T10891128 53010 FZRANO $
PAMY 150156Z AUTO 03010KT 10SM FEW024 OVC049 M09/M13 A2943 RMK AO2 SLP968 T10891133 FZRANO $
PAMY 150056Z AUTO 03008KT 10SM FEW028 OVC049 M09/M13 A2943 RMK AO2 SLP968 T10891133 FZRANO $
PAMY 142356Z AUTO 04009KT 10SM BKN047 M08/M13 A2942 RMK AO2 SLP964 60000 T10831133 11083 21100 50005 FZRANO $
PAMY 142256Z AUTO 04009KT 10SM CLR M09/M13 A2942 RMK AO2 SLP965 T10891133 FZRANO $
PAMY 142156Z AUTO 05014G19KT 10SM FEW019 OVC039 M09/M13 A2942 RMK AO2 SLP966 T10941128 FZRANO $
PAMY 142056Z AUTO 03015KT 10SM OVC041 M09/M13 A2940 RMK AO2 SLP959 60000 T10891133 51015 FZRANO $
PAMY 141956Z AUTO 04017KT 10SM FEW026 SCT031 OVC043 M09/M13 A2939 RMK AO2 SNE16 SLP954 P0000 T10941128 FZRANO $
PAMY 141945Z AUTO 05014KT 10SM SCT024 OVC043 M09/M13 A2939 RMK AO2 SNE16 P0000 FZRANO $
PAMY 141820Z AUTO 03016KT 9SM BKN028 OVC033 M09/M13 A2937 RMK AO2 FZRANO $
PAMY 141807Z AUTO 03018KT 10SM SCT025 OVC031 M09/M12 A2936 RMK AO2 FZRANO $
PAMY 141756Z AUTO 04018KT 9SM OVC029 M09/M13 A2936 RMK AO2 SLP944 60000 T10941128 11089 21100 53002 FZRANO $
PAMY 141749Z AUTO 03019KT 9SM FEW019 SCT027 OVC031 M09/M12 A2936 RMK AO2 FZRANO $
PAMY 141738Z AUTO 02017G23KT 9SM FEW019 BKN029 OVC042 M09/M13 A2936 RMK AO2 FZRANO $
PAMY 141656Z AUTO 03015KT 10SM FEW020 OVC040 M10/M12 A2935 RMK AO2 SLP943 T11001122 FZRANO $
PAMY 141556Z AUTO 05015KT 10SM OVC034 M09/M12 A2935 RMK AO2 SLP940 T10941122 FZRANO $
PAMY 141456Z AUTO 03016KT 10SM CLR M09/M11 A2935 RMK AO2 SLP942 60000 T10941111 53003 FZRANO $
PAMY 141356Z AUTO 03018KT 10SM OVC050 M09/M11 A2935 RMK AO2 SNB35E44 SLP940 P0000 T10941111 FZRANO $
PAMY 141256Z AUTO 04017KT 10SM FEW010 OVC050 M09/M11 A2935 RMK AO2 SNB08E18 SLP939 P0000 T10941106 FZRANO $
PAMY 141243Z AUTO 05018KT 10SM FEW006 SCT010 OVC050 M09/M10 A2934 RMK AO2 SNB08E18 P0000 FZRANO $
PAMY 141229Z AUTO 05015KT 10SM OVC008 M09/M10 A2934 RMK AO2 SNB08E18 CIG 004V011 P0000 FZRANO $
PAMY 141156Z AUTO 04017KT 10SM OVC004 M09/M10 A2934 RMK AO2 SNE1059 CIG 003V007 SLP938 P0000 60000 T10891100 11072 21117 51008 FZRANO $
PAMY 141131Z AUTO 03013KT 4SM BR OVC004 M08/M09 A2934 RMK AO2 SNE1059 P0000 FZRANO $
PAMY 141112Z AUTO 04011KT 1 1/2SM BR OVC004 M08/M09 A2934 RMK AO2 VIS 1/2V5 SNE1059 P0000 FZRANO $
PAMY 141056Z AUTO 05010KT 4SM -SN BR OVC004 M08/M09 A2934 RMK AO2 SNB31 CIG 003V007 SLP936 P0000 T10831094 FZRANO $
PAMY 141046Z AUTO 05009KT 2SM -SN BR OVC004 M08/M09 A2933 RMK AO2 VIS 3/4V5 SNB31 CIG 003V008 P0000 FZRANO $
PAMY 141018Z AUTO 05012KT 10SM OVC006 M08/M09 A2933 RMK AO2 CIG 003V008 FZRANO $
PAMY 140956Z AUTO 05011KT 10SM OVC004 M08/M09 A2933 RMK AO2 SNE06 SLP934 P0000 T10781089 FZRANO $
PAMY 140856Z AUTO 08010KT 5SM -SN BR OVC004 M08/M08 A2932 RMK AO2 SLP930 P0000 60000 T10781083 410721128 51006 FZRANO $
PAMY 140808Z AUTO 08010KT 9SM -SN OVC006 M08/M09 A2931 RMK AO2 P0000 FZRANO $
PAMY 140756Z AUTO 13004KT 9SM -SN OVC004 M09/M10 A2931 RMK AO2 SNB10 SLP929 P0000 T10891100 FZRANO $
PAMY 140745Z AUTO 14004KT 3SM -SN BR BKN004 OVC008 M09/M10 A2931 RMK AO2 SNB10 P0000 FZRANO $
PAMY 140741Z AUTO 12003KT 1 1/4SM -SN BR BKN004 OVC008 M09/M10 A2931 RMK AO2 VIS 1/2V5 SNB10 P0000 FZRANO $
PAMY 140739Z AUTO 11003KT 3/4SM -SN BR OVC006 M09/M10 A2931 RMK AO2 SNB10 CIG 004V008 P0000 FZRANO $
PAMY 140716Z AUTO 14005KT 1/4SM -SN FZFG OVC008 M09/M11 A2930 RMK AO2 SNB10 CIG 007V011 P0000 FZRANO $
PAMY 140705Z AUTO 00000KT 1/2SM FZFG OVC010 M10/M11 A2931 RMK AO2 CIG 007V013 FZRANO $
PAMY 140656Z AUTO 00000KT 1/4SM FZFG OVC012 M10/M11 A2931 RMK AO2 SNB03E41 SLP927 P0000 T11001111 FZRANO $
PAMY 140633Z AUTO 16003KT 1/4SM -SN FZFG BKN012 OVC018 M11/M12 A2930 RMK AO2 SNB03 P0000 FZRANO $
PAMY 140629Z AUTO 16005KT 1/2SM -SN FZFG SCT012 BKN016 OVC070 M11/M12 A2930 RMK AO2 SNB03 P0000 FZRANO $
PAMY 140626Z AUTO 17006KT 1SM -SN BR SCT012 BKN016 OVC070 M11/M13 A2930 RMK AO2 SNB03 P0000 FZRANO $
PAMY 140622Z AUTO 16006KT 4SM -SN BR FEW013 BKN018 OVC070 M12/M13 A2930 RMK AO2 SNB03 P0000 FZRANO $
PAMY 140556Z AUTO 17005KT 10SM OVC070 M12/M13 A2930 RMK AO2 SLP924 60000 T11171128 11072 21117 53001 FZRANO $
PAMY 140456Z AUTO 16007KT 8SM OVC075 M11/M12 A2930 RMK AO2 SLP923 T11111122 FZRANO $
PAMY 140436Z AUTO 14005KT 6SM BR OVC075 M11/M12 A2930 RMK AO2 FZRANO $
PAMY 140426Z AUTO 11003KT 2SM BR FEW033 OVC075 M12/M13 A2930 RMK AO2 VIS 1 1/4V3 FZRANO $
PAMY 140359Z AUTO 15003KT 1/2SM FZFG SCT002 BKN033 OVC080 M12/M13 A2930 RMK AO2 FZRANO $
PAMY 140356Z AUTO 00000KT 3/4SM BR BKN002 BKN033 OVC080 M12/M13 A2930 RMK AO2 SLP923 T11171128 FZRANO $
PAMY 140354Z AUTO 00000KT 3/4SM BR BKN002 BKN033 OVC080 M12/M13 A2930 RMK AO2 FZRANO $
PAMY 140347Z AUTO 16004KT 1/2SM FZFG OVC002 M12/M13 A2930 RMK AO2 FZRANO $
PAMY 140256Z AUTO 18005KT M1/4SM FZFG BKN002 M11/M12 A2929 RMK AO2 SLP921 60000 T11111122 52003 FZRANO $
PAMY 140220Z AUTO 14008KT 1/4SM FZFG OVC002 M11/M12 A2929 RMK AO2 FZRANO $
PAMY 140210Z AUTO 13007KT 1/2SM FZFG OVC002 M11/M12 A2929 RMK AO2 FZRANO $
PAMY 140207Z AUTO 13008KT 1SM BR OVC002 M11/M12 A2929 RMK AO2 FZRANO $
PAMY 140151Z AUTO 14005KT 1/2SM FZFG OVC002 M11/M12 A2929 RMK AO2 FZRANO $
PAMY 140056Z AUTO 1/4SM FZFG OVC002 M09/M10 A2928 RMK AO2 SNB2359E55 SLP919 P0000 T10941100 FZRANO $
PAMY 140000Z AUTO 13007KT 1/4SM -SN FZFG BKN002 M08/M09 A2928 RMK AO2 SNB2359 P0000 FZRANO $
PAMY 132356Z AUTO 14007KT 3/4SM BR BKN002 M08/M09 A2928 RMK AO2 SLP916 T10781089 11072 21100 53007 FZRANO $
PAMY 132349Z AUTO 14009KT 1SM BR BKN002 M08/M09 A2927 RMK AO2 FZRANO $
PAMY 132341Z AUTO 13010KT 1/2SM FZFG VV003 M08/M09 A2927 RMK AO2 FZRANO $
PAMY 132332Z AUTO 11010KT 1/2SM FZFG CLR M08/M09 A2927 RMK AO2 FZRANO $
PAMY 132324Z AUTO 13010KT 3/4SM BR CLR M08/M09 A2927 RMK AO2 FZRANO $
PAMY 132322Z AUTO 14011KT 1 1/2SM BR CLR M08/M09 A2927 RMK AO2 FZRANO $